Current Conditions
Partly Cloudy
Conditions



Pressure
1010.84 (hPa) - 29.85 (inHG)
Visibility

9.7 (km) - 6.0 (miles)
Temperature
24  °C
Temperature
15  °C
Dewpoint
57  %
 Humidity
Wind Speed
13  km/h
7  kts
8  mph
3.6  m/s
Wind Direction
N
45°
E
90°
135°
S
180°
225°
W
270°
315°
 200°

South South
West
Airport Data
LIPI
Rivolto Air Base
Metar :LIPI 291455Z 20007KT 9999 FEW060 24/15 Q1011 RMK BKN SCT200 VIS MIN 9999 WIND THR06 21006KT WIND THR24 20009KT BLU
Wed 29th May 16:55 pm
Raw Metar Info
Raw METAR is the most common format in the world for the transmission of observational weather data. It is highly standardized through the International Civil Aviation Organization (ICAO), which allows it to be understood throughout most of the world.
API Info
Data Provided by
https://www.checkwx.com/weather/LIPI

Aviation Weather providing METAR, TAF, AIRMET, SIGMET and OUTLOOK Weather Reports
© Info
CSS/SVG/PHP scripts were developed by weather34 for use in the weather34 template © 2015-2024

Guide Info provided by Metar-Wikipedia